createdAt,value
2018-06-15T00:00:57.010Z,23.33
2018-06-15T00:03:25.799Z,23.47
2018-06-15T00:05:54.540Z,24.90
2018-06-15T00:08:23.199Z,25.27
2018-06-15T00:10:51.931Z,25.03
2018-06-15T00:13:21.006Z,25.47
2018-06-15T00:15:49.732Z,25.13
2018-06-15T00:18:18.305Z,24.40
2018-06-15T00:20:47.159Z,23.23
2018-06-15T00:23:16.163Z,23.77
2018-06-15T00:25:44.972Z,25.03
2018-06-15T00:28:13.751Z,23.87
2018-06-15T00:30:42.531Z,24.07
2018-06-15T00:33:11.163Z,24.93
2018-06-15T00:35:39.789Z,24.97
2018-06-15T00:38:08.844Z,24.40
2018-06-15T00:40:37.486Z,24.43
2018-06-15T00:43:06.551Z,22.77
2018-06-15T00:45:41.724Z,24.77
2018-06-15T00:48:10.461Z,24.00
2018-06-15T00:50:39.227Z,24.57
2018-06-15T00:53:07.999Z,23.27
2018-06-15T00:55:36.811Z,25.77
2018-06-15T00:58:05.590Z,25.47
2018-06-15T01:00:34.372Z,24.70
2018-06-15T01:03:03.163Z,24.47
2018-06-15T01:05:31.948Z,24.00
2018-06-15T01:08:00.570Z,24.47
2018-06-15T01:10:29.202Z,24.43
2018-06-15T01:12:57.959Z,25.27
2018-06-15T01:15:26.537Z,24.17
2018-06-15T01:17:55.159Z,24.90
2018-06-15T01:20:24.284Z,24.83
2018-06-15T01:22:53.327Z,24.43
2018-06-15T01:25:22.058Z,25.13
2018-06-15T01:27:50.877Z,25.27
2018-06-15T01:30:19.869Z,25.20
2018-06-15T01:32:49.019Z,24.33
2018-06-15T01:35:18.092Z,25.50
2018-06-15T01:37:46.872Z,24.60
2018-06-15T01:40:15.442Z,26.27
2018-06-15T01:42:44.247Z,25.57
2018-06-15T01:45:19.444Z,26.13
2018-06-15T01:47:48.235Z,24.67
2018-06-15T01:50:16.975Z,24.87
2018-06-15T01:52:45.743Z,26.50
2018-06-15T01:55:14.527Z,24.87
2018-06-15T01:57:43.330Z,25.30
2018-06-15T02:00:11.966Z,25.43
2018-06-15T02:02:41.205Z,24.87
2018-06-15T02:05:10.000Z,24.30
2018-06-15T02:07:38.807Z,25.07
2018-06-15T02:10:07.751Z,24.27
2018-06-15T02:12:37.064Z,26.30
2018-06-15T02:15:05.988Z,26.13
2018-06-15T02:17:34.618Z,25.07
2018-06-15T02:20:03.499Z,27.27
2018-06-15T02:22:32.267Z,24.80
2018-06-15T02:25:00.843Z,25.00
2018-06-15T02:27:29.457Z,25.90
2018-06-15T02:29:58.231Z,26.53
2018-06-15T02:32:27.432Z,27.53
2018-06-15T02:34:56.186Z,26.60
2018-06-15T02:37:25.216Z,25.27
2018-06-15T02:39:54.254Z,25.20
2018-06-15T02:42:23.003Z,25.77
2018-06-15T02:44:51.842Z,25.57
2018-06-15T02:47:20.619Z,25.90
2018-06-15T02:49:49.399Z,25.60
2018-06-15T02:52:18.134Z,26.03
2018-06-15T02:54:47.507Z,25.03
2018-06-15T02:57:16.168Z,25.67
2018-06-15T02:59:44.957Z,26.43
2018-06-15T03:02:13.722Z,25.40
2018-06-15T03:04:42.517Z,24.13
2018-06-15T03:07:11.268Z,25.33
2018-06-15T03:09:40.104Z,25.20
2018-06-15T03:12:08.860Z,24.43
2018-06-15T03:14:37.861Z,24.87
2018-06-15T03:17:06.613Z,25.13
2018-06-15T03:19:35.351Z,24.67
2018-06-15T03:22:04.204Z,24.73
2018-06-15T03:24:32.991Z,24.40
2018-06-15T03:27:01.740Z,25.83
2018-06-15T03:29:30.762Z,25.70
2018-06-15T03:31:59.540Z,26.00
2018-06-15T03:34:28.618Z,26.07
2018-06-15T03:36:57.432Z,27.47
2018-06-15T03:39:26.200Z,26.93
2018-06-15T03:41:55.004Z,26.33
2018-06-15T03:44:23.753Z,26.40
2018-06-15T03:46:52.587Z,26.13
2018-06-15T03:49:21.364Z,27.10
2018-06-15T03:51:50.139Z,26.60
2018-06-15T03:54:18.870Z,27.13
2018-06-15T03:56:47.620Z,26.27
2018-06-15T03:59:16.695Z,25.73
2018-06-15T04:01:45.279Z,26.00
2018-06-15T04:04:13.914Z,24.80
2018-06-15T04:06:42.655Z,22.87
2018-06-15T04:09:11.438Z,23.57
2018-06-15T04:11:40.509Z,24.13
2018-06-15T04:14:09.284Z,23.47
2018-06-15T04:16:38.351Z,22.30
2018-06-15T04:19:07.168Z,23.27
2018-06-15T04:21:35.924Z,23.80
2018-06-15T04:24:04.762Z,22.33
2018-06-15T04:26:33.811Z,22.30
2018-06-15T04:29:02.668Z,23.90
2018-06-15T04:31:31.477Z,23.53
2018-06-15T04:34:00.340Z,23.93
2018-06-15T04:36:29.124Z,25.30
2018-06-15T04:38:57.921Z,24.50
2018-06-15T04:41:26.987Z,24.67
2018-06-15T04:43:55.782Z,26.07
2018-06-15T04:46:24.546Z,24.73
2018-06-15T04:48:53.684Z,25.07
2018-06-15T04:51:22.413Z,26.17
2018-06-15T04:53:50.981Z,25.77
2018-06-15T04:56:19.812Z,25.43
2018-06-15T04:58:48.601Z,27.23
2018-06-15T05:01:25.248Z,25.77
2018-06-15T05:03:55.505Z,25.83
2018-06-15T05:06:30.339Z,25.20
2018-06-15T05:08:59.119Z,24.67
2018-06-15T05:11:34.399Z,26.77
2018-06-15T05:14:03.203Z,26.07
2018-06-15T05:16:31.944Z,25.80
2018-06-15T05:19:01.081Z,25.27
2018-06-15T05:21:29.906Z,27.43
2018-06-15T05:23:58.498Z,25.20
2018-06-15T05:26:27.303Z,25.67
2018-06-15T05:28:56.603Z,23.40
2018-06-15T05:31:25.695Z,22.93
2018-06-15T05:33:54.838Z,20.90
2018-06-15T05:36:23.571Z,22.60
2018-06-15T05:38:52.189Z,23.63
2018-06-15T05:41:20.944Z,21.43
2018-06-15T05:43:50.139Z,22.67
2018-06-15T05:46:18.932Z,21.97
2018-06-15T05:48:53.596Z,20.13
2018-06-15T05:51:28.540Z,19.77
2018-06-15T05:54:03.410Z,22.37
2018-06-15T05:56:32.075Z,20.97
2018-06-15T05:59:00.911Z,21.13
2018-06-15T06:01:34.851Z,21.23
2018-06-15T06:04:03.808Z,19.60
2018-06-15T06:06:32.555Z,21.53
2018-06-15T06:09:01.646Z,21.90
2018-06-15T06:11:30.388Z,20.93
2018-06-15T06:13:59.012Z,22.67
2018-06-15T06:16:27.742Z,22.00
2018-06-15T06:18:56.734Z,22.17
2018-06-15T06:21:25.591Z,21.53
2018-06-15T06:23:54.412Z,21.20
2018-06-15T06:26:23.182Z,21.77
2018-06-15T06:28:51.948Z,22.80
2018-06-15T06:31:21.143Z,21.53
2018-06-15T06:33:49.763Z,22.07
2018-06-15T06:36:18.564Z,19.90
2018-06-15T06:38:53.369Z,17.70
2018-06-15T06:41:21.998Z,17.03
2018-06-15T06:43:50.765Z,16.60
2018-06-15T06:46:25.703Z,14.27
2018-06-15T06:48:54.831Z,15.80
2018-06-15T06:51:23.654Z,15.87
2018-06-15T06:53:52.464Z,15.43
2018-06-15T06:56:21.220Z,15.17
2018-06-15T06:58:51.107Z,13.53
2018-06-15T07:01:20.016Z,11.87
2018-06-15T07:03:48.815Z,10.97
2018-06-15T07:06:17.663Z,11.47
2018-06-15T07:08:46.395Z,10.57
2018-06-15T07:11:15.220Z,10.23
2018-06-15T07:13:43.991Z,11.07
2018-06-15T07:16:12.807Z,10.63
2018-06-15T07:18:41.563Z,12.10
2018-06-15T07:21:10.347Z,12.47
2018-06-15T07:23:39.126Z,12.40
2018-06-15T07:26:08.233Z,11.03
2018-06-15T07:28:37.075Z,11.67
2018-06-15T07:31:05.887Z,10.70
2018-06-15T07:33:34.505Z,10.53
2018-06-15T07:36:03.351Z,9.37
2018-06-15T07:38:32.104Z,10.07
2018-06-15T07:41:00.951Z,9.43
2018-06-15T07:43:29.597Z,9.83
2018-06-15T07:45:58.430Z,11.20
2018-06-15T07:48:27.198Z,9.97
2018-06-15T07:50:56.041Z,9.03
2018-06-15T07:53:24.925Z,9.90
2018-06-15T07:55:53.664Z,8.80
2018-06-15T07:58:24.075Z,7.80
2018-06-15T08:00:53.148Z,7.57
2018-06-15T08:03:21.891Z,7.90
2018-06-15T08:05:50.771Z,8.80
2018-06-15T08:08:19.576Z,7.13
2018-06-15T08:10:48.431Z,5.37
2018-06-15T08:13:17.192Z,4.60
2018-06-15T08:15:46.147Z,4.77
2018-06-15T08:18:15.007Z,6.03
2018-06-15T08:20:43.946Z,4.97
2018-06-15T08:23:12.767Z,3.77
2018-06-15T08:25:41.535Z,2.63
2018-06-15T08:28:10.339Z,2.80
2018-06-15T08:30:39.148Z,1.40
2018-06-15T08:33:08.095Z,2.27
2018-06-15T08:35:36.694Z,3.83
2018-06-15T08:38:05.531Z,3.13
2018-06-15T08:40:34.353Z,2.27
2018-06-15T08:43:03.204Z,3.27
2018-06-15T08:45:38.199Z,3.83
2018-06-15T08:48:06.978Z,4.30
2018-06-15T08:50:36.503Z,3.87
2018-06-15T08:53:05.453Z,3.07
2018-06-15T08:55:34.259Z,2.80
2018-06-15T08:58:02.926Z,2.13
2018-06-15T09:00:31.692Z,2.60
2018-06-15T09:03:00.578Z,3.03
2018-06-15T09:05:29.750Z,3.30
2018-06-15T09:07:58.496Z,2.93
2018-06-15T09:10:27.308Z,2.70
2018-06-15T09:12:56.068Z,2.93
2018-06-15T09:15:24.896Z,2.83
2018-06-15T09:17:54.057Z,2.60
2018-06-15T09:20:22.831Z,2.53
2018-06-15T09:22:51.634Z,2.53
2018-06-15T09:25:20.475Z,3.07
2018-06-15T09:27:49.458Z,2.47
2018-06-15T09:30:18.288Z,2.50
2018-06-15T09:32:47.123Z,2.70
2018-06-15T09:35:16.201Z,1.97
2018-06-15T09:37:45.074Z,2.53
2018-06-15T09:40:13.879Z,2.87
2018-06-15T09:42:42.676Z,2.53
2018-06-15T09:45:17.362Z,3.13
2018-06-15T09:47:46.136Z,3.10
2018-06-15T09:50:14.932Z,3.70
2018-06-15T09:52:43.753Z,2.70
2018-06-15T09:55:12.553Z,3.13
2018-06-15T09:57:41.347Z,3.07
2018-06-15T10:00:10.243Z,2.77
2018-06-15T10:02:39.011Z,3.50
2018-06-15T10:05:07.789Z,3.73
2018-06-15T10:07:36.543Z,3.70
2018-06-15T10:10:05.162Z,3.97
2018-06-15T10:12:34.056Z,4.13
2018-06-15T10:15:02.877Z,3.77
2018-06-15T10:17:31.796Z,4.00
2018-06-15T10:20:00.448Z,4.00
2018-06-15T10:22:29.229Z,4.17
2018-06-15T10:24:57.976Z,4.10
2018-06-15T10:27:26.762Z,4.33
2018-06-15T10:29:55.592Z,3.60
2018-06-15T10:32:24.360Z,3.87
2018-06-15T10:34:53.267Z,4.10
2018-06-15T10:37:22.104Z,3.43
2018-06-15T10:39:50.939Z,3.50
2018-06-15T10:42:20.163Z,3.27
2018-06-15T10:44:48.977Z,2.70
2018-06-15T10:47:17.755Z,3.07
2018-06-15T10:49:46.576Z,3.00
2018-06-15T10:52:15.199Z,2.83
2018-06-15T10:54:44.099Z,3.57
2018-06-15T10:57:12.879Z,3.10
2018-06-15T10:59:41.672Z,2.90
2018-06-15T11:02:10.495Z,2.80
2018-06-15T11:04:39.259Z,2.77
2018-06-15T11:07:08.172Z,2.50
2018-06-15T11:09:36.932Z,2.17
2018-06-15T11:12:06.176Z,2.23
2018-06-15T11:14:34.949Z,2.30
2018-06-15T11:17:03.768Z,2.17
2018-06-15T11:19:32.618Z,1.50
2018-06-15T11:22:01.452Z,1.70
2018-06-15T11:24:30.264Z,1.57
2018-06-15T11:26:59.048Z,2.40
2018-06-15T11:29:27.685Z,2.00
2018-06-15T11:31:56.466Z,2.37
2018-06-15T11:34:25.270Z,2.00
2018-06-15T11:36:54.062Z,1.70
2018-06-15T11:39:23.299Z,2.57
2018-06-15T11:41:51.922Z,1.70
2018-06-15T11:44:20.744Z,2.27
2018-06-15T11:46:49.507Z,2.13
2018-06-15T11:49:18.619Z,2.23
2018-06-15T11:51:47.670Z,2.20
2018-06-15T11:54:16.476Z,1.90
2018-06-15T11:56:45.421Z,2.23
2018-06-15T11:59:14.467Z,2.00
2018-06-15T12:01:43.499Z,2.13
2018-06-15T12:04:12.351Z,1.90
2018-06-15T12:06:41.125Z,2.40
2018-06-15T12:09:10.420Z,2.53
2018-06-15T12:11:39.010Z,3.07
2018-06-15T12:14:07.796Z,3.17
2018-06-15T12:16:36.605Z,3.10
2018-06-15T12:19:05.821Z,3.00
2018-06-15T12:21:34.640Z,2.80
2018-06-15T12:24:03.408Z,2.33
2018-06-15T12:26:32.215Z,2.60
2018-06-15T12:29:00.973Z,2.23
2018-06-15T12:31:29.786Z,2.70
2018-06-15T12:33:58.895Z,2.53
2018-06-15T12:36:27.697Z,2.50
2018-06-15T12:38:56.490Z,2.50
2018-06-15T12:41:25.308Z,2.03
2018-06-15T12:43:54.056Z,2.97
2018-06-15T12:46:22.916Z,2.80
2018-06-15T12:48:51.970Z,2.80
2018-06-15T12:51:20.654Z,2.50
2018-06-15T12:53:49.383Z,3.10
2018-06-15T12:56:18.179Z,2.50
2018-06-15T12:58:46.904Z,2.43
2018-06-15T13:01:15.988Z,2.43
2018-06-15T13:03:44.800Z,2.67
2018-06-15T13:06:13.426Z,2.47
2018-06-15T13:08:42.266Z,2.50
2018-06-15T13:11:11.060Z,2.23
2018-06-15T13:13:39.867Z,2.67
2018-06-15T13:16:08.534Z,2.43
2018-06-15T13:18:37.312Z,2.90
2018-06-15T13:21:06.132Z,2.63
2018-06-15T13:23:35.313Z,2.30
2018-06-15T13:26:04.611Z,2.23
2018-06-15T13:28:33.375Z,1.97
2018-06-15T13:31:02.188Z,2.63
2018-06-15T13:33:31.215Z,2.93
2018-06-15T13:36:00.379Z,2.80
2018-06-15T13:38:29.172Z,2.57
2018-06-15T13:40:57.955Z,2.70
2018-06-15T13:43:27.352Z,2.73
2018-06-15T13:45:58.181Z,2.37
2018-06-15T13:48:27.070Z,2.87
2018-06-15T13:50:56.180Z,2.50
2018-06-15T13:53:24.954Z,2.70
2018-06-15T13:55:53.768Z,2.40
2018-06-15T13:58:22.512Z,2.83
2018-06-15T14:00:51.387Z,2.47
2018-06-15T14:03:20.187Z,2.90
2018-06-15T14:05:48.984Z,2.70
2018-06-15T14:08:17.739Z,3.10
2018-06-15T14:10:46.397Z,3.17
2018-06-15T14:13:15.207Z,2.40
2018-06-15T14:15:44.046Z,3.10
2018-06-15T14:18:12.844Z,3.30
2018-06-15T14:20:41.663Z,2.87
2018-06-15T14:23:11.012Z,2.43
2018-06-15T14:25:39.933Z,2.97
2018-06-15T14:28:08.797Z,2.30
2018-06-15T14:30:37.597Z,2.43
2018-06-15T14:33:06.425Z,2.73
2018-06-15T14:35:35.269Z,2.63
2018-06-15T14:38:04.104Z,2.73
2018-06-15T14:40:33.069Z,3.33
2018-06-15T14:43:01.655Z,2.93
2018-06-15T14:45:36.595Z,3.30
2018-06-15T14:48:05.528Z,2.93
2018-06-15T14:50:34.269Z,2.80
2018-06-15T14:53:03.074Z,3.30
2018-06-15T14:55:32.180Z,2.47
2018-06-15T14:58:01.296Z,3.03
2018-06-15T15:00:30.172Z,2.70
2018-06-15T15:02:58.944Z,2.90
2018-06-15T15:05:28.119Z,2.57
2018-06-15T15:07:57.354Z,2.80
2018-06-15T15:10:26.155Z,2.60
2018-06-15T15:12:55.900Z,2.63
2018-06-15T15:15:24.872Z,2.60
2018-06-15T15:17:53.606Z,3.20
2018-06-15T15:20:22.428Z,2.63
2018-06-15T15:22:51.240Z,3.03
2018-06-15T15:25:20.096Z,3.17
2018-06-15T15:27:48.840Z,3.23
2018-06-15T15:30:17.789Z,3.10
2018-06-15T15:32:46.540Z,3.17
2018-06-15T15:35:15.271Z,3.20
2018-06-15T15:37:44.529Z,3.40
2018-06-15T15:40:13.527Z,3.03
2018-06-15T15:42:42.267Z,3.30
2018-06-15T15:45:17.287Z,3.20
2018-06-15T15:47:45.939Z,3.00
2018-06-15T15:50:14.690Z,3.20
2018-06-15T15:52:43.760Z,2.60
2018-06-15T15:55:12.516Z,3.30
2018-06-15T15:57:41.276Z,2.70
2018-06-15T16:00:10.688Z,3.30
2018-06-15T16:02:39.304Z,3.43
2018-06-15T16:05:08.082Z,2.47
2018-06-15T16:07:37.131Z,2.97
2018-06-15T16:10:05.944Z,2.67
2018-06-15T16:12:34.763Z,2.57
2018-06-15T16:15:03.792Z,2.97
2018-06-15T16:17:32.539Z,3.40
2018-06-15T16:20:01.328Z,2.80
2018-06-15T16:22:30.268Z,3.27
2018-06-15T16:24:59.074Z,3.40
2018-06-15T16:27:27.851Z,3.63
2018-06-15T16:29:57.045Z,3.47
2018-06-15T16:32:26.166Z,3.20
2018-06-15T16:34:54.934Z,3.57
2018-06-15T16:37:23.987Z,3.50
2018-06-15T16:39:52.755Z,4.13
2018-06-15T16:42:21.524Z,5.37
2018-06-15T16:44:50.601Z,3.30
2018-06-15T16:47:19.369Z,3.43
2018-06-15T16:49:48.178Z,2.77
2018-06-15T16:52:17.280Z,2.80
2018-06-15T16:54:46.076Z,3.00
2018-06-15T16:57:14.855Z,2.73
2018-06-15T16:59:43.952Z,2.80
2018-06-15T17:02:13.008Z,3.30
2018-06-15T17:04:42.032Z,2.97
2018-06-15T17:07:11.116Z,2.63
2018-06-15T17:09:39.886Z,3.00
2018-06-15T17:12:08.791Z,2.67
2018-06-15T17:14:37.920Z,3.90
2018-06-15T17:17:06.729Z,3.47
2018-06-15T17:19:35.496Z,3.77
2018-06-15T17:22:04.901Z,5.03
2018-06-15T17:24:33.698Z,3.77
2018-06-15T17:27:02.609Z,3.30
2018-06-15T17:29:31.894Z,4.43
2018-06-15T17:32:00.700Z,3.40
2018-06-15T17:34:29.469Z,4.13
2018-06-15T17:36:58.561Z,2.80
2018-06-15T17:39:27.451Z,2.77
2018-06-15T17:41:56.524Z,2.27
2018-06-15T17:44:25.495Z,2.40
2018-06-15T17:46:54.282Z,2.57
2018-06-15T17:49:23.059Z,2.10
2018-06-15T17:51:52.207Z,2.30
2018-06-15T17:54:20.994Z,2.10
2018-06-15T17:56:49.777Z,2.30
2018-06-15T17:59:18.900Z,2.40
2018-06-15T18:01:47.682Z,2.50
2018-06-15T18:04:16.346Z,2.53
2018-06-15T18:06:45.296Z,2.27
2018-06-15T18:09:14.368Z,2.63
2018-06-15T18:11:43.124Z,2.00
2018-06-15T18:14:12.252Z,2.47
2018-06-15T18:16:40.894Z,2.23
2018-06-15T18:19:09.640Z,1.97
2018-06-15T18:21:38.734Z,2.40
2018-06-15T18:24:08.595Z,2.00
2018-06-15T18:26:37.967Z,2.23
2018-06-15T18:29:07.658Z,2.67
2018-06-15T18:33:59.131Z,2.00
2018-06-15T18:36:27.909Z,2.33
2018-06-15T18:38:56.685Z,2.20
2018-06-15T18:41:25.773Z,2.40
2018-06-15T18:43:54.870Z,2.47
2018-06-15T18:46:23.625Z,2.47
2018-06-15T18:48:52.536Z,1.97
2018-06-15T18:51:21.862Z,2.10
2018-06-15T18:53:50.702Z,2.33
2018-06-15T18:56:19.504Z,1.53
2018-06-15T18:58:48.563Z,2.10
2018-06-15T19:01:17.395Z,2.90
2018-06-15T19:03:46.179Z,2.20
2018-06-15T19:06:15.373Z,2.70
2018-06-15T19:08:44.393Z,2.27
2018-06-15T19:11:13.370Z,2.10
2018-06-15T19:13:44.728Z,2.40
2018-06-15T19:16:14.397Z,2.30
2018-06-15T19:18:43.947Z,2.20
2018-06-15T19:21:12.973Z,2.27
2018-06-15T19:23:42.081Z,2.60
2018-06-15T19:26:11.309Z,2.40
2018-06-15T19:28:40.351Z,2.87
2018-06-15T19:31:09.485Z,3.07
2018-06-15T19:33:39.024Z,2.47
2018-06-15T19:36:08.305Z,2.47
2018-06-15T19:38:37.334Z,3.40
2018-06-15T19:41:06.750Z,2.67
2018-06-15T19:43:35.898Z,3.03
2018-06-15T19:46:05.964Z,2.80
2018-06-15T19:48:35.275Z,2.90
2018-06-15T19:51:04.106Z,3.10
2018-06-15T19:53:32.985Z,3.30
2018-06-15T19:56:02.030Z,3.17
2018-06-15T19:58:30.828Z,2.53
2018-06-15T20:00:59.709Z,3.23
2018-06-15T20:03:29.241Z,2.60
2018-06-15T20:05:58.124Z,2.60
2018-06-15T20:08:27.085Z,3.07
2018-06-15T20:10:56.218Z,2.53
2018-06-15T20:13:25.302Z,3.20
2018-06-15T20:15:54.070Z,2.77
2018-06-15T20:18:23.003Z,2.20
2018-06-15T20:20:51.926Z,2.60
2018-06-15T20:23:20.533Z,2.47
2018-06-15T20:25:49.679Z,2.50
2018-06-15T20:28:18.802Z,2.67
2018-06-15T20:30:47.593Z,2.17
2018-06-15T20:33:16.762Z,2.97
2018-06-15T20:35:45.537Z,3.10
2018-06-15T20:38:14.302Z,2.80
2018-06-15T20:40:43.345Z,3.03
2018-06-15T20:43:12.127Z,2.83
2018-06-15T20:45:47.151Z,2.60
2018-06-15T20:48:15.891Z,2.40
2018-06-15T20:50:44.474Z,2.57
2018-06-15T20:53:13.638Z,2.90
2018-06-15T20:55:42.446Z,2.60
2018-06-15T20:58:11.236Z,3.20
2018-06-15T21:00:40.061Z,2.93
2018-06-15T21:03:08.832Z,2.57
2018-06-15T21:05:37.650Z,3.50
2018-06-15T21:08:06.933Z,2.57
2018-06-15T21:10:36.199Z,3.20
2018-06-15T21:13:05.070Z,2.80
2018-06-15T21:15:34.307Z,2.80
2018-06-15T21:18:03.088Z,3.00
2018-06-15T21:20:31.918Z,3.13
2018-06-15T21:23:00.860Z,2.47
2018-06-15T21:25:29.823Z,2.70
2018-06-15T21:27:58.838Z,2.73
2018-06-15T21:30:27.620Z,2.90
2018-06-15T21:32:57.100Z,2.77
2018-06-15T21:35:25.858Z,3.20
2018-06-15T21:37:55.023Z,3.00
2018-06-15T21:40:23.811Z,3.00
2018-06-15T21:42:52.583Z,2.40
2018-06-15T21:45:27.635Z,2.70
2018-06-15T21:47:56.376Z,2.67
2018-06-15T21:50:25.168Z,3.70
2018-06-15T21:52:54.312Z,3.10
2018-06-15T21:55:22.945Z,3.20
2018-06-15T21:57:51.522Z,2.53
2018-06-15T22:00:20.682Z,2.97
2018-06-15T22:02:49.436Z,2.77
2018-06-15T22:05:18.188Z,3.07
2018-06-15T22:07:47.500Z,2.93
2018-06-15T22:10:16.430Z,3.33
2018-06-15T22:12:45.188Z,3.23
2018-06-15T22:15:14.189Z,3.13
2018-06-15T22:17:42.996Z,3.23
2018-06-15T22:20:11.790Z,3.70
2018-06-15T22:22:40.874Z,3.80
2018-06-15T22:25:09.641Z,3.60
2018-06-15T22:27:38.375Z,2.90
2018-06-15T22:30:07.706Z,3.37
2018-06-15T22:32:36.797Z,3.30
2018-06-15T22:35:05.631Z,3.10
2018-06-15T22:37:34.399Z,3.23
2018-06-15T22:40:03.167Z,2.70
2018-06-15T22:42:31.899Z,3.20
2018-06-15T22:45:00.896Z,3.50
2018-06-15T22:47:29.776Z,3.80
2018-06-15T22:49:58.504Z,3.03
2018-06-15T22:52:27.618Z,3.30
2018-06-15T22:54:56.364Z,2.97
2018-06-15T22:57:25.169Z,3.33
2018-06-15T22:59:54.309Z,3.87
2018-06-15T23:02:23.364Z,3.53
2018-06-15T23:04:52.154Z,3.60
2018-06-15T23:07:21.538Z,3.10
2018-06-15T23:09:50.348Z,3.63
2018-06-15T23:12:19.123Z,3.27
2018-06-15T23:14:48.030Z,4.77
2018-06-15T23:17:16.798Z,3.77
2018-06-15T23:19:45.481Z,3.77
2018-06-15T23:22:14.638Z,3.47
2018-06-15T23:24:43.399Z,3.63
2018-06-15T23:27:12.159Z,3.60
2018-06-15T23:29:41.421Z,3.73
2018-06-15T23:32:10.163Z,3.30
2018-06-15T23:34:38.991Z,4.03
2018-06-15T23:37:07.967Z,3.77
2018-06-15T23:39:36.716Z,3.83
2018-06-15T23:42:05.700Z,4.10
2018-06-15T23:44:34.870Z,3.40
2018-06-15T23:47:03.672Z,3.83
2018-06-15T23:49:32.446Z,3.43
2018-06-15T23:52:01.547Z,3.47
2018-06-15T23:54:30.295Z,3.73
2018-06-15T23:56:59.134Z,3.43
2018-06-15T23:59:28.336Z,4.23
